Time;durP1;ratioP1;P1;durP2;ratioP2;P2;SDS_P1;SDS_P2;PMS_P1;PMS_P2;Temp;Humidity;BMP_temperature;BMP_pressure;BME280_temperature;BME280_humidity;BME280_pressure;Samples;Min_cycle;Max_cycle;Signal;HPM_P1;HPM_P2
2022/01/26 00:00:57;;;;;;;25.65;11.80;;;2.50;99.90;;;;;;4960025;28;20026;-71
2022/01/26 00:06:14;;;;;;;27.50;12.48;;;2.50;99.90;;;;;;4965279;28;20069;-71
2022/01/26 00:08:40;;;;;;;27.48;11.93;;;2.50;99.90;;;;;;4959583;28;20486;-76
2022/01/26 00:11:06;;;;;;;26.60;12.38;;;2.60;99.90;;;;;;4958908;28;20174;-72
2022/01/26 00:13:32;;;;;;;23.53;11.43;;;2.50;99.90;;;;;;4962162;28;20035;-71
2022/01/26 00:16:00;;;;;;;25.93;11.97;;;2.60;99.90;;;;;;4964775;28;20262;-71
2022/01/26 00:18:30;;;;;;;26.98;12.07;;;2.60;99.90;;;;;;4960986;28;20023;-71
2022/01/26 00:21:03;;;;;;;24.35;12.25;;;2.50;99.90;;;;;;4958593;28;20146;-70
2022/01/26 00:23:51;;;;;;;24.92;12.77;;;2.50;99.90;;;;;;4958592;28;20091;-71
2022/01/26 00:29:08;;;;;;;;;;;2.50;99.90;;;;;;4960666;28;20096;-71
2022/01/26 00:39:57;;;;;;;25.52;12.00;;;2.50;99.90;;;;;;4965390;28;20080;-70
2022/01/26 00:42:23;;;;;;;27.85;13.25;;;2.50;99.90;;;;;;4963250;28;20037;-70
2022/01/26 00:44:50;;;;;;;26.83;12.90;;;2.50;99.90;;;;;;4964460;28;20011;-72
2022/01/26 00:47:16;;;;;;;32.78;14.20;;;2.50;99.90;;;;;;4959756;28;20031;-70
2022/01/26 00:49:42;;;;;;;24.95;12.77;;;2.50;99.90;;;;;;4961330;28;20031;-72
2022/01/26 00:52:13;;;;;;;29.23;14.63;;;2.50;99.90;;;;;;4959895;28;20472;-72
2022/01/26 00:54:39;;;;;;;28.02;13.75;;;2.40;99.90;;;;;;4961096;28;20026;-71
2022/01/26 00:57:05;;;;;;;24.17;12.87;;;2.40;99.90;;;;;;4958810;28;20038;-71
2022/01/26 00:59:30;;;;;;;28.33;12.07;;;2.50;99.90;;;;;;4955265;28;20602;-71
2022/01/26 01:01:56;;;;;;;33.53;13.47;;;2.40;99.90;;;;;;4959569;28;20692;-70
2022/01/26 01:04:23;;;;;;;29.90;13.70;;;2.40;99.90;;;;;;4967215;28;20094;-70
2022/01/26 01:06:55;;;;;;;28.15;13.95;;;2.40;99.90;;;;;;4956460;28;20022;-72
2022/01/26 01:09:23;;;;;;;30.63;13.52;;;2.50;99.90;;;;;;4964194;28;20023;-71
2022/01/26 01:11:55;;;;;;;27.80;13.30;;;2.50;99.90;;;;;;4958615;28;20019;-73
2022/01/26 01:14:21;;;;;;;26.23;12.95;;;2.50;99.90;;;;;;4962759;28;20034;-70
2022/01/26 01:16:47;;;;;;;28.75;13.65;;;2.50;99.90;;;;;;4954470;28;20019;-70
2022/01/26 01:19:31;;;;;;;28.50;13.87;;;2.50;99.90;;;;;;4965765;28;20574;-71
2022/01/26 01:25:18;;;;;;;28.60;14.02;;;2.50;99.90;;;;;;4957285;28;20029;-71
2022/01/26 01:35:27;;;;;;;29.67;14.63;;;2.60;99.90;;;;;;4959019;28;20090;-71
2022/01/26 01:37:54;;;;;;;;;;;2.60;99.90;;;;;;4959787;28;20023;-71
2022/01/26 01:40:20;;;;;;;30.55;13.38;;;2.60;99.90;;;;;;4965055;28;19913;-76
2022/01/26 01:42:45;;;;;;;33.63;14.57;;;2.60;99.90;;;;;;4956435;28;20018;-76
2022/01/26 01:45:11;;;;;;;28.53;13.30;;;2.60;99.90;;;;;;4964361;28;20047;-72
2022/01/26 01:47:37;;;;;;;32.77;15.17;;;2.50;99.90;;;;;;4957623;28;20109;-75
2022/01/26 01:50:10;;;;;;;35.73;15.10;;;2.50;99.90;;;;;;4961590;28;20113;-75
2022/01/26 01:52:35;;;;;;;34.83;12.60;;;2.50;99.90;;;;;;4955556;28;20030;-72
2022/01/26 01:55:04;;;;;;;29.80;13.30;;;2.50;99.90;;;;;;4964639;28;20018;-71
2022/01/26 01:57:30;;;;;;;26.42;13.18;;;2.50;99.90;;;;;;4957817;28;20121;-73
2022/01/26 01:59:55;;;;;;;30.10;13.37;;;2.50;99.90;;;;;;4966564;28;20161;-71
2022/01/26 02:02:21;;;;;;;28.67;12.53;;;2.50;99.90;;;;;;4966711;28;20073;-71
2022/01/26 02:04:47;;;;;;;29.13;13.67;;;2.40;99.90;;;;;;4962512;28;20149;-70
2022/01/26 02:07:13;;;;;;;34.10;13.60;;;2.40;99.90;;;;;;4962075;28;21624;-71
2022/01/26 02:09:39;;;;;;;29.33;13.53;;;2.40;99.90;;;;;;4962367;28;20019;-74
2022/01/26 02:12:16;;;;;;;37.03;14.97;;;2.40;99.90;;;;;;4964751;28;20193;-71
2022/01/26 02:14:51;;;;;;;30.30;12.07;;;2.40;99.90;;;;;;4958737;28;20050;-69
2022/01/26 02:17:31;;;;;;;30.98;14.07;;;2.40;99.90;;;;;;4966841;28;20026;-72
2022/01/26 02:50:31;;;;;;;30.27;13.55;;;2.20;99.90;;;;;;4964627;28;20038;-70
2022/01/26 02:55:50;;;;;;;32.85;13.55;;;2.20;99.90;;;;;;4960757;28;20490;-72
2022/01/26 03:03:43;;;;;;;28.50;12.25;;;2.30;99.90;;;;;;4957511;28;20037;-71
2022/01/26 03:06:15;;;;;;;32.40;14.50;;;2.20;99.90;;;;;;4958304;28;20025;-74
2022/01/26 03:08:50;;;;;;;32.17;14.43;;;2.30;99.90;;;;;;4962257;28;20022;-70
2022/01/26 03:11:17;;;;;;;31.60;12.75;;;2.30;99.90;;;;;;4959126;28;20744;-70
2022/01/26 03:13:49;;;;;;;30.13;12.43;;;2.20;99.90;;;;;;4962346;28;20401;-70
2022/01/26 03:16:22;;;;;;;31.13;13.57;;;2.20;99.90;;;;;;4958497;28;20229;-70
2022/01/26 03:19:15;;;;;;;35.28;15.60;;;2.20;99.90;;;;;;4962680;28;20062;-70
2022/01/26 03:22:16;;;;;;;29.10;13.18;;;2.20;99.90;;;;;;4963935;28;20026;-69
2022/01/26 03:30:20;;;;;;;26.80;12.63;;;2.20;99.90;;;;;;4962043;28;20045;-70
2022/01/26 03:35:17;;;;;;;30.00;13.23;;;2.10;99.90;;;;;;4960542;28;20108;-70
2022/01/26 03:37:55;;;;;;;31.55;12.88;;;2.10;99.90;;;;;;4965156;28;20176;-70
2022/01/26 03:40:29;;;;;;;29.30;13.73;;;2.20;99.90;;;;;;4963481;28;20018;-70
2022/01/26 03:42:55;;;;;;;29.23;13.32;;;2.20;99.90;;;;;;4962499;28;20823;-70
2022/01/26 03:45:21;;;;;;;32.97;13.32;;;2.20;99.90;;;;;;4959880;28;20738;-70
2022/01/26 03:47:48;;;;;;;30.97;12.93;;;2.20;99.90;;;;;;4966445;28;20034;-70
2022/01/26 03:50:13;;;;;;;30.05;12.77;;;2.10;99.90;;;;;;4957384;28;20031;-70
2022/01/26 03:52:40;;;;;;;29.63;13.23;;;2.10;99.90;;;;;;4965669;28;20069;-70
2022/01/26 03:55:06;;;;;;;29.05;13.13;;;2.10;99.90;;;;;;4960033;28;20563;-70
2022/01/26 03:57:32;;;;;;;31.43;12.57;;;2.10;99.90;;;;;;4966258;28;20038;-70
2022/01/26 03:59:57;;;;;;;28.80;13.87;;;2.10;99.90;;;;;;4959614;28;20345;-71
2022/01/26 04:02:23;;;;;;;24.93;11.63;;;2.10;99.90;;;;;;4959218;28;20081;-71
2022/01/26 04:04:54;;;;;;;29.67;13.10;;;2.10;99.90;;;;;;4961643;28;20034;-71
2022/01/26 04:07:20;;;;;;;30.05;13.00;;;2.10;99.90;;;;;;4961666;28;20040;-73
2022/01/26 04:09:46;;;;;;;27.17;12.03;;;2.10;99.90;;;;;;4959232;28;20031;-72
2022/01/26 04:12:11;;;;;;;30.13;13.87;;;2.10;99.90;;;;;;4961769;28;20042;-73
2022/01/26 04:14:38;;;;;;;28.53;12.90;;;2.10;99.90;;;;;;4958752;28;20042;-74
2022/01/26 04:17:03;;;;;;;26.95;12.07;;;2.00;99.90;;;;;;4962656;28;20073;-70
2022/01/26 04:19:32;;;;;;;30.47;12.33;;;2.00;99.90;;;;;;4969517;28;20071;-70
2022/01/26 04:22:19;;;;;;;29.65;12.70;;;2.10;99.90;;;;;;4965223;28;20029;-72
2022/01/26 04:24:50;;;;;;;30.05;12.68;;;2.00;99.90;;;;;;4963060;28;20031;-70
2022/01/26 04:27:39;;;;;;;29.42;12.45;;;2.00;99.90;;;;;;4963104;28;20023;-71
2022/01/26 04:30:06;;;;;;;32.55;13.05;;;2.00;99.90;;;;;;4956051;28;20011;-70
2022/01/26 04:32:31;;;;;;;34.20;13.63;;;2.00;99.90;;;;;;4961131;28;20031;-70
2022/01/26 04:34:57;;;;;;;29.17;12.83;;;2.00;99.90;;;;;;4959374;28;20041;-70
2022/01/26 04:38:07;;;;;;;28.83;13.05;;;2.00;99.90;;;;;;4962175;28;20018;-70
2022/01/26 04:40:35;;;;;;;26.02;12.10;;;2.00;99.90;;;;;;4961082;28;20031;-70
2022/01/26 04:43:05;;;;;;;28.52;12.80;;;2.00;99.90;;;;;;4960733;28;20023;-70
2022/01/26 04:45:31;;;;;;;30.55;13.00;;;2.00;99.90;;;;;;4963111;28;20037;-69
2022/01/26 04:47:56;;;;;;;27.10;12.37;;;2.00;99.90;;;;;;4960943;28;20422;-70
2022/01/26 04:50:23;;;;;;;32.53;13.83;;;2.00;99.90;;;;;;4957134;28;20034;-71
2022/01/26 04:52:49;;;;;;;32.08;12.00;;;2.00;99.90;;;;;;4965651;28;20464;-70
2022/01/26 04:55:15;;;;;;;27.97;11.87;;;2.00;99.90;;;;;;4956731;28;20049;-70
2022/01/26 04:57:40;;;;;;;28.50;11.55;;;2.00;99.90;;;;;;4960548;28;20061;-70
2022/01/26 05:00:08;;;;;;;29.93;12.10;;;2.00;99.90;;;;;;4955222;28;20130;-70
2022/01/26 05:02:34;;;;;;;32.50;13.68;;;2.00;99.90;;;;;;4961850;28;20026;-70
2022/01/26 05:05:00;;;;;;;28.75;12.15;;;2.00;99.90;;;;;;4956344;28;20045;-70
2022/01/26 05:07:25;;;;;;;27.83;12.27;;;2.00;99.90;;;;;;4965720;28;20034;-70
2022/01/26 05:09:51;;;;;;;26.57;12.07;;;1.90;99.90;;;;;;4965291;28;20137;-70
2022/01/26 05:12:18;;;;;;;28.33;13.13;;;2.00;99.90;;;;;;4954357;28;20807;-69
2022/01/26 05:14:47;;;;;;;30.75;12.90;;;1.90;99.90;;;;;;4962925;28;20476;-70
2022/01/26 05:17:14;;;;;;;25.00;12.40;;;2.00;99.90;;;;;;4953598;28;20465;-70
2022/01/26 05:19:40;;;;;;;29.33;11.52;;;2.00;99.90;;;;;;4964118;28;20404;-71
2022/01/26 05:22:06;;;;;;;28.57;12.87;;;2.00;99.90;;;;;;4953807;28;20027;-70
2022/01/26 05:24:31;;;;;;;25.98;11.95;;;2.00;99.90;;;;;;4966900;28;20535;-70
2022/01/26 05:26:57;;;;;;;26.73;11.93;;;2.10;99.90;;;;;;4963057;28;20042;-70
2022/01/26 05:29:26;;;;;;;27.97;12.47;;;2.10;99.90;;;;;;4958576;28;20036;-69
2022/01/26 05:31:51;;;;;;;27.02;11.70;;;2.10;99.90;;;;;;4963107;28;20668;-69
2022/01/26 05:34:17;;;;;;;28.83;12.73;;;2.00;99.90;;;;;;4964490;28;20023;-70
2022/01/26 05:36:43;;;;;;;30.07;13.07;;;2.00;99.90;;;;;;4966349;28;20037;-70
2022/01/26 05:39:08;;;;;;;27.10;12.00;;;2.10;99.90;;;;;;4969178;28;20366;-70
2022/01/26 05:41:34;;;;;;;29.43;12.73;;;2.10;99.90;;;;;;4965474;28;20023;-70
2022/01/26 05:44:01;;;;;;;27.93;11.80;;;2.10;99.90;;;;;;4966200;28;20023;-70
2022/01/26 05:46:35;;;;;;;26.73;11.70;;;2.10;99.90;;;;;;4963859;28;20511;-69
2022/01/26 05:49:01;;;;;;;27.58;11.65;;;2.10;99.90;;;;;;4969522;28;20728;-70
2022/01/26 05:51:31;;;;;;;29.38;12.27;;;2.10;99.90;;;;;;4971208;28;20034;-70
2022/01/26 05:53:56;;;;;;;25.30;11.10;;;2.10;99.90;;;;;;4967710;28;20093;-69
2022/01/26 05:56:22;;;;;;;26.70;12.77;;;2.10;99.90;;;;;;4967197;28;21447;-71
2022/01/26 05:58:48;;;;;;;26.10;11.27;;;2.10;99.90;;;;;;4962442;28;20037;-69
2022/01/26 06:01:14;;;;;;;30.07;12.50;;;2.10;99.90;;;;;;4967537;28;20034;-70
2022/01/26 06:03:41;;;;;;;26.40;12.52;;;2.10;99.90;;;;;;4962147;28;20018;-72
2022/01/26 06:06:08;;;;;;;24.00;11.05;;;2.10;99.90;;;;;;4966368;28;20058;-69
2022/01/26 06:08:34;;;;;;;26.50;11.75;;;2.10;99.90;;;;;;4961790;28;20126;-70
2022/01/26 06:11:01;;;;;;;26.30;11.40;;;2.00;99.90;;;;;;4968497;28;20727;-70
2022/01/26 06:13:28;;;;;;;29.58;11.73;;;2.10;99.90;;;;;;4966437;28;20053;-70
2022/01/26 06:15:55;;;;;;;26.27;12.05;;;2.10;99.90;;;;;;4965587;28;20417;-69
2022/01/26 06:18:21;;;;;;;27.58;11.15;;;2.00;99.90;;;;;;4965472;28;20084;-70
2022/01/26 06:20:48;;;;;;;;;;;2.00;99.90;;;;;;4969087;28;20015;-71
2022/01/26 06:23:14;;;;;;;27.20;10.93;;;2.10;99.90;;;;;;4963556;28;20208;-69
2022/01/26 06:25:40;;;;;;;28.73;12.00;;;2.10;99.90;;;;;;4966898;28;20076;-70
2022/01/26 06:28:11;;;;;;;27.17;12.85;;;2.00;99.90;;;;;;4963299;28;20038;-71
2022/01/26 06:30:37;;;;;;;26.45;11.77;;;2.10;99.90;;;;;;4966783;28;20502;-71
2022/01/26 06:33:04;;;;;;;28.33;12.52;;;2.10;99.90;;;;;;4966934;28;20038;-68
2022/01/26 06:35:29;;;;;;;;;;;2.20;99.90;;;;;;4968418;28;20654;-69
2022/01/26 06:37:55;;;;;;;25.25;10.82;;;2.10;99.90;;;;;;4960952;28;19925;-72
2022/01/26 06:40:23;;;;;;;28.67;11.90;;;2.10;99.90;;;;;;4968042;28;20074;-70
2022/01/26 06:42:55;;;;;;;26.88;10.63;;;2.10;99.90;;;;;;4961291;28;20061;-70
2022/01/26 06:45:25;;;;;;;25.00;11.00;;;2.10;99.90;;;;;;4960274;28;20031;-73
2022/01/26 06:50:36;;;;;;;37.50;12.07;;;2.10;99.90;;;;;;4961656;28;20319;-70
2022/01/26 06:53:02;;;;;;;27.58;12.80;;;2.10;99.90;;;;;;4964117;28;20364;-69
2022/01/26 06:55:28;;;;;;;25.75;11.57;;;2.10;99.90;;;;;;4970131;28;20038;-70
2022/01/26 06:57:54;;;;;;;24.67;11.63;;;2.10;99.90;;;;;;4960362;28;20544;-69
2022/01/26 07:00:20;;;;;;;22.80;10.90;;;2.10;99.90;;;;;;4963454;28;20098;-69
2022/01/26 07:02:45;;;;;;;28.63;13.27;;;2.00;99.90;;;;;;4957460;28;20110;-70
2022/01/26 07:05:12;;;;;;;31.90;12.27;;;2.10;99.90;;;;;;4962295;28;20026;-69
2022/01/26 07:07:39;;;;;;;25.45;11.38;;;2.00;99.90;;;;;;4957844;28;20019;-70
2022/01/26 07:10:05;;;;;;;28.80;11.20;;;2.10;99.90;;;;;;4968225;28;20026;-69
2022/01/26 07:12:31;;;;;;;23.58;10.98;;;2.10;99.90;;;;;;4960676;28;20035;-70
2022/01/26 07:22:51;;;;;;;29.15;10.80;;;2.00;99.90;;;;;;4960464;28;20077;-70
2022/01/26 07:25:17;;;;;;;23.97;11.73;;;2.00;99.90;;;;;;4970027;28;20031;-70
2022/01/26 07:27:43;;;;;;;25.07;10.60;;;2.00;99.90;;;;;;4959815;28;21549;-69
2022/01/26 07:30:09;;;;;;;21.60;9.97;;;2.10;99.90;;;;;;4963794;28;20083;-71
2022/01/26 07:32:37;;;;;;;24.40;10.95;;;2.10;99.90;;;;;;4960514;28;20027;-69
2022/01/26 07:35:04;;;;;;;23.63;11.55;;;2.10;99.90;;;;;;4957456;28;20034;-69
2022/01/26 07:37:30;;;;;;;23.55;10.65;;;2.10;99.90;;;;;;4957882;28;20243;-70
2022/01/26 07:40:06;;;;;;;25.73;10.83;;;2.10;99.90;;;;;;4963111;28;20015;-69
2022/01/26 07:42:32;;;;;;;23.15;10.70;;;2.10;99.90;;;;;;4963614;28;20484;-69
2022/01/26 07:44:58;;;;;;;23.85;11.00;;;2.10;99.90;;;;;;4956387;28;20630;-73
2022/01/26 07:47:24;;;;;;;22.77;10.07;;;2.10;99.90;;;;;;4964212;28;20039;-69
2022/01/26 07:49:53;;;;;;;21.45;9.65;;;2.10;99.90;;;;;;4955257;28;20026;-70
2022/01/26 07:52:19;;;;;;;23.40;9.75;;;2.10;99.90;;;;;;4964230;28;20022;-70
2022/01/26 07:54:47;;;;;;;23.70;9.87;;;2.10;99.90;;;;;;4953079;28;20451;-70
2022/01/26 07:57:13;;;;;;;23.67;10.13;;;2.20;99.90;;;;;;4966080;28;20031;-71
2022/01/26 07:59:39;;;;;;;24.87;10.33;;;2.20;99.90;;;;;;4960393;28;20023;-70
2022/01/26 08:02:04;;;;;;;26.43;10.40;;;2.20;99.90;;;;;;4964581;28;20023;-72
2022/01/26 08:04:30;;;;;;;21.23;10.23;;;2.20;99.90;;;;;;4964963;28;20073;-73
2022/01/26 08:06:56;;;;;;;22.70;10.43;;;2.20;99.90;;;;;;4958368;28;20031;-70
2022/01/26 08:09:21;;;;;;;24.97;11.17;;;2.20;99.90;;;;;;4963778;28;20054;-72
2022/01/26 08:11:47;;;;;;;28.90;11.63;;;2.10;99.90;;;;;;4961998;28;20027;-69
2022/01/26 08:14:13;;;;;;;25.00;10.83;;;2.20;99.90;;;;;;4960200;28;20400;-70
2022/01/26 08:16:39;;;;;;;28.40;11.63;;;2.20;99.90;;;;;;4961370;28;20074;-69
2022/01/26 08:19:05;;;;;;;29.38;11.73;;;2.20;99.90;;;;;;4957724;28;20019;-69
2022/01/26 08:21:30;;;;;;;25.40;10.97;;;2.20;99.90;;;;;;4963463;28;20035;-69
2022/01/26 08:24:02;;;;;;;21.60;10.93;;;2.20;99.90;;;;;;4957937;28;20413;-70
2022/01/26 08:26:38;;;;;;;26.33;10.82;;;2.20;99.90;;;;;;4965828;28;20022;-70
2022/01/26 08:29:10;;;;;;;26.73;9.98;;;2.10;99.90;;;;;;4959929;28;20029;-71
2022/01/26 08:31:36;;;;;;;25.48;9.77;;;2.10;99.90;;;;;;4963506;28;20126;-69
2022/01/26 08:34:01;;;;;;;30.73;11.23;;;2.20;99.90;;;;;;4958069;28;20668;-70
2022/01/26 08:36:27;;;;;;;25.80;11.00;;;2.20;99.90;;;;;;4962917;28;20026;-69
2022/01/26 08:38:52;;;;;;;24.50;10.60;;;2.20;99.90;;;;;;4962049;28;20038;-70
2022/01/26 08:41:19;;;;;;;26.83;10.90;;;2.20;99.90;;;;;;4958862;28;20443;-69
2022/01/26 08:43:44;;;;;;;26.08;10.07;;;2.20;99.90;;;;;;4957371;28;20384;-69
2022/01/26 08:46:10;;;;;;;22.40;10.07;;;2.20;99.90;;;;;;4960041;28;20026;-69
2022/01/26 08:48:35;;;;;;;19.97;10.03;;;2.20;99.90;;;;;;4964522;28;20069;-69
2022/01/26 08:51:01;;;;;;;22.43;10.20;;;2.30;99.90;;;;;;4957357;28;20050;-70
2022/01/26 08:53:27;;;;;;;22.50;9.90;;;2.30;99.90;;;;;;4966515;28;20572;-69
2022/01/26 08:55:52;;;;;;;26.27;10.57;;;2.30;99.90;;;;;;4958574;28;20030;-70
2022/01/26 08:58:19;;;;;;;27.37;10.00;;;2.30;99.90;;;;;;4963382;28;20051;-69
2022/01/26 09:00:45;;;;;;;26.52;9.73;;;2.30;99.90;;;;;;4958857;28;20030;-70
2022/01/26 09:03:10;;;;;;;23.38;10.40;;;2.30;99.90;;;;;;4961597;28;20035;-70
2022/01/26 09:05:36;;;;;;;22.60;9.77;;;2.30;99.90;;;;;;4962142;28;20029;-69
2022/01/26 09:08:03;;;;;;;24.17;10.80;;;2.30;99.90;;;;;;4957127;28;20512;-68
2022/01/26 09:10:32;;;;;;;;;;;2.30;99.90;;;;;;4965408;28;20045;-68
2022/01/26 09:12:59;;;;;;;22.23;8.98;;;2.30;99.90;;;;;;4962380;28;19957;-68
2022/01/26 09:15:28;;;;;;;29.58;9.68;;;2.30;99.90;;;;;;4961462;28;20109;-69
2022/01/26 09:18:00;;;;;;;22.00;9.35;;;2.40;99.90;;;;;;4953813;28;20046;-69
2022/01/26 09:20:26;;;;;;;24.58;9.93;;;2.40;99.90;;;;;;4963608;28;20109;-69
2022/01/26 09:22:52;;;;;;;23.43;9.70;;;2.40;99.90;;;;;;4958684;28;20145;-71
2022/01/26 09:25:18;;;;;;;22.33;10.17;;;2.40;99.90;;;;;;4959879;28;20102;-69
2022/01/26 09:27:43;;;;;;;21.30;9.52;;;2.40;99.90;;;;;;4963942;28;20034;-68
2022/01/26 09:30:10;;;;;;;23.30;9.63;;;2.40;99.90;;;;;;4958174;28;20041;-69
2022/01/26 09:32:37;;;;;;;22.23;9.43;;;2.40;99.90;;;;;;4967097;28;20379;-69
2022/01/26 09:35:05;;;;;;;21.42;9.20;;;2.50;99.90;;;;;;4958975;28;20113;-69
2022/01/26 09:37:31;;;;;;;21.58;8.70;;;2.50;99.90;;;;;;4958982;28;20381;-68
2022/01/26 09:39:57;;;;;;;20.47;8.03;;;2.50;99.90;;;;;;4958219;28;20022;-69
2022/01/26 09:42:23;;;;;;;22.20;9.83;;;2.50;99.90;;;;;;4964852;28;20053;-68
2022/01/26 09:44:49;;;;;;;21.20;9.18;;;2.40;99.90;;;;;;4959254;28;20119;-69
2022/01/26 09:47:15;;;;;;;23.30;9.25;;;2.40;99.90;;;;;;4962136;28;20038;-69
2022/01/26 09:49:41;;;;;;;22.23;10.07;;;2.40;99.90;;;;;;4958527;28;20097;-68
2022/01/26 09:52:15;;;;;;;26.13;10.03;;;2.40;99.90;;;;;;4957196;28;20049;-68
2022/01/26 09:54:42;;;;;;;17.23;7.97;;;2.50;99.90;;;;;;4959825;28;20030;-68
2022/01/26 09:57:08;;;;;;;25.85;8.90;;;2.50;99.90;;;;;;4957693;28;20109;-69
2022/01/26 09:59:35;;;;;;;21.13;8.90;;;2.60;99.90;;;;;;4963205;28;20141;-68
2022/01/26 10:02:02;;;;;;;19.15;8.18;;;2.60;99.90;;;;;;4958945;28;20014;-68
2022/01/26 10:04:39;;;;;;;18.73;7.85;;;2.60;99.90;;;;;;4966778;28;20138;-68
2022/01/26 10:07:46;;;;;;;18.38;7.70;;;2.60;99.90;;;;;;4954585;28;20018;-69
2022/01/26 10:15:37;;;;;;;24.35;8.88;;;2.60;99.90;;;;;;4957824;28;20058;-68
2022/01/26 10:18:15;;;;;;;17.92;7.22;;;2.60;99.90;;;;;;4957508;28;20022;-69
2022/01/26 10:20:57;;;;;;;16.77;7.15;;;2.70;99.90;;;;;;4960508;28;20142;-68
2022/01/26 10:23:24;;;;;;;18.17;7.85;;;2.70;99.90;;;;;;4973679;28;20022;-69
2022/01/26 10:26:03;;;;;;;17.92;7.78;;;2.70;99.90;;;;;;4955620;28;20023;-69
2022/01/26 10:28:45;;;;;;;20.95;7.45;;;2.80;99.90;;;;;;4967028;28;20031;-69
2022/01/26 10:31:20;;;;;;;15.52;7.55;;;2.80;99.90;;;;;;4961495;28;20019;-69
2022/01/26 10:34:13;;;;;;;21.25;7.60;;;2.90;99.90;;;;;;4962791;28;20097;-68
2022/01/26 10:36:38;;;;;;;19.45;7.65;;;2.90;99.90;;;;;;4959377;28;20034;-69
2022/01/26 10:39:08;;;;;;;17.90;7.27;;;2.90;99.90;;;;;;4960026;28;20019;-68
2022/01/26 10:41:38;;;;;;;17.08;7.15;;;2.90;99.90;;;;;;4965016;28;20622;-68
2022/01/26 10:44:04;;;;;;;14.50;7.07;;;2.80;99.90;;;;;;4964967;28;20045;-68
2022/01/26 10:46:38;;;;;;;16.60;7.68;;;2.80;99.90;;;;;;4960715;28;20051;-68
2022/01/26 10:54:38;;;;;;;18.77;8.05;;;2.80;99.90;;;;;;4963488;28;20031;-69
2022/01/26 10:57:06;;;;;;;17.05;7.70;;;2.80;99.90;;;;;;4956520;28;20037;-68
2022/01/26 10:59:36;;;;;;;15.38;7.20;;;2.70;99.90;;;;;;4964030;28;20046;-69
2022/01/26 11:02:10;;;;;;;17.38;7.50;;;2.70;99.90;;;;;;4960024;28;20082;-68
2022/01/26 11:04:39;;;;;;;15.57;6.75;;;2.70;99.90;;;;;;4963197;28;20030;-69
2022/01/26 11:07:06;;;;;;;17.48;6.63;;;2.80;99.90;;;;;;4954400;28;20372;-71
2022/01/26 11:09:35;;;;;;;16.67;8.27;;;2.80;99.90;;;;;;4962458;28;20070;-69
2022/01/26 11:12:07;;;;;;;14.63;7.53;;;2.80;99.90;;;;;;4960338;28;20022;-68
2022/01/26 11:14:46;;;;;;;15.73;6.80;;;2.80;99.90;;;;;;4964341;28;20030;-74
2022/01/26 11:17:28;;;;;;;14.75;6.32;;;2.90;99.90;;;;;;4960379;28;20424;-69
2022/01/26 11:19:57;;;;;;;14.13;7.57;;;2.90;99.90;;;;;;4963488;28;20100;-69
2022/01/26 11:22:28;;;;;;;14.27;7.60;;;2.90;99.90;;;;;;4962269;28;20106;-68
2022/01/26 11:25:06;;;;;;;14.43;6.75;;;2.90;99.90;;;;;;4962423;28;20111;-69
2022/01/26 11:27:36;;;;;;;13.38;6.80;;;2.90;99.90;;;;;;4963832;28;20023;-70
2022/01/26 11:30:39;;;;;;;10.73;6.45;;;3.00;99.90;;;;;;4960524;28;20084;-68
2022/01/26 11:33:18;;;;;;;13.85;6.13;;;3.00;99.90;;;;;;4955955;28;20407;-69
2022/01/26 11:35:48;;;;;;;14.25;6.03;;;3.10;99.90;;;;;;4965963;28;20104;-69
2022/01/26 11:46:28;;;;;;;11.00;5.70;;;3.20;99.90;;;;;;4963588;28;20089;-69
2022/01/26 11:49:08;;;;;;;11.82;6.05;;;3.30;99.90;;;;;;4964229;28;20031;-70
2022/01/26 11:51:50;;;;;;;13.20;6.72;;;3.30;99.90;;;;;;4963110;28;20106;-69
2022/01/26 11:54:19;;;;;;;14.00;6.50;;;3.40;99.90;;;;;;4957221;28;20855;-70
2022/01/26 11:57:02;;;;;;;12.95;5.45;;;3.40;99.90;;;;;;4965497;28;20041;-79
2022/01/26 11:59:31;;;;;;;13.20;6.32;;;3.40;99.90;;;;;;4964677;28;20074;-73
2022/01/26 12:02:07;;;;;;;11.95;6.03;;;3.40;99.90;;;;;;4957864;28;20109;-68
2022/01/26 12:04:33;;;;;;;12.13;5.65;;;3.50;99.90;;;;;;4961373;28;20074;-71
2022/01/26 12:07:09;;;;;;;12.85;6.35;;;3.50;99.90;;;;;;4962368;28;20620;-70
2022/01/26 12:09:37;;;;;;;20.85;6.07;;;3.40;99.90;;;;;;4964079;28;20740;-69
2022/01/26 12:12:05;;;;;;;13.63;6.20;;;3.40;99.90;;;;;;4961887;28;20018;-69
2022/01/26 12:14:33;;;;;;;14.27;5.45;;;3.40;99.90;;;;;;4965780;28;20026;-68
2022/01/26 12:17:03;;;;;;;13.65;5.82;;;3.40;99.90;;;;;;4984736;28;20022;-68
2022/01/26 12:19:48;;;;;;;14.25;6.43;;;3.50;99.90;;;;;;4960233;28;20026;-69
2022/01/26 12:34:13;;;;;;;12.38;6.43;;;3.70;99.90;;;;;;4962788;28;20125;-68
2022/01/26 12:36:58;;;;;;;12.35;6.32;;;3.70;99.90;;;;;;4964725;28;20034;-68
2022/01/26 12:42:14;;;;;;;15.40;7.32;;;3.60;99.90;;;;;;4957948;28;20030;-68
2022/01/26 12:44:40;;;;;;;14.68;7.25;;;3.60;99.90;;;;;;4963483;28;20022;-68
2022/01/26 12:47:06;;;;;;;17.23;6.63;;;3.70;99.90;;;;;;4961999;28;20416;-68
2022/01/26 12:49:31;;;;;;;17.70;7.55;;;3.60;99.90;;;;;;4960901;28;20027;-68
2022/01/26 12:51:57;;;;;;;13.97;6.47;;;3.50;99.90;;;;;;4960726;28;20525;-69
2022/01/26 12:54:24;;;;;;;16.87;5.93;;;3.60;99.90;;;;;;4958386;28;20153;-68
2022/01/26 12:56:50;;;;;;;15.90;6.18;;;3.60;99.90;;;;;;4966873;28;20030;-69
2022/01/26 12:59:20;;;;;;;11.57;5.88;;;3.60;99.90;;;;;;4958492;28;20026;-68
2022/01/26 13:01:51;;;;;;;10.85;6.15;;;3.70;99.90;;;;;;4963325;28;20099;-69
2022/01/26 13:04:17;;;;;;;12.55;6.13;;;3.60;99.90;;;;;;4956822;28;20022;-67
2022/01/26 13:06:53;;;;;;;12.87;6.33;;;3.70;99.90;;;;;;4960562;28;20034;-67
2022/01/26 13:09:26;;;;;;;14.52;6.55;;;3.70;99.90;;;;;;4958945;28;20086;-67
2022/01/26 13:11:54;;;;;;;15.35;7.38;;;3.70;99.90;;;;;;4964763;28;20031;-67
2022/01/26 13:14:27;;;;;;;14.02;6.20;;;3.70;99.90;;;;;;4958810;28;20022;-67
2022/01/26 13:19:49;;;;;;;15.57;6.57;;;3.60;99.90;;;;;;4957266;28;20048;-67
2022/01/26 13:25:09;;;;;;;13.95;6.60;;;3.50;99.90;;;;;;4961755;28;20068;-67
2022/01/26 13:30:36;;;;;;;12.43;6.25;;;3.30;99.90;;;;;;4956264;28;20093;-68
2022/01/26 13:36:03;;;;;;;13.40;6.60;;;3.20;99.90;;;;;;4962420;28;20503;-67
2022/01/26 14:01:45;;;;;;;12.60;6.38;;;3.30;99.90;;;;;;4969084;28;20109;-70
2022/01/26 14:04:12;;;;;;;14.57;7.03;;;3.30;99.90;;;;;;4968060;28;20022;-67
2022/01/26 14:06:38;;;;;;;14.32;6.70;;;3.50;99.90;;;;;;4969797;28;20007;-69
2022/01/26 14:09:03;;;;;;;14.33;6.70;;;3.50;99.90;;;;;;4963162;28;20089;-68
2022/01/26 14:11:29;;;;;;;13.17;6.47;;;3.50;99.90;;;;;;4967972;28;20022;-67
2022/01/26 14:13:57;;;;;;;14.23;6.67;;;3.50;99.90;;;;;;4966550;28;20148;-67
2022/01/26 14:16:25;;;;;;;12.77;6.25;;;3.50;99.90;;;;;;4961246;28;20274;-68
2022/01/26 14:21:31;;;;;;;12.77;6.63;;;3.50;99.90;;;;;;4960430;28;20621;-67
2022/01/26 14:26:31;;;;;;;13.75;6.55;;;3.30;99.90;;;;;;4962623;28;20023;-69
2022/01/26 14:28:57;;;;;;;13.20;6.95;;;3.30;99.90;;;;;;4969530;28;20436;-68
2022/01/26 14:31:32;;;;;;;13.88;7.15;;;3.30;99.90;;;;;;4958203;28;20124;-71
2022/01/26 14:37:02;;;;;;;12.07;6.72;;;3.30;99.90;;;;;;4959950;28;20039;-68
2022/01/26 14:56:01;;;;;;;16.90;7.82;;;3.20;99.90;;;;;;4964262;28;20023;-68
2022/01/26 15:33:23;;;;;;;19.80;8.77;;;3.20;99.90;;;;;;4959033;28;20040;-69
2022/01/26 15:57:35;;;;;;;18.48;8.35;;;3.00;99.90;;;;;;4959160;28;20215;-68
2022/01/26 17:02:33;;;;;;;16.52;8.30;;;2.80;99.90;;;;;;4958378;28;20025;-71
2022/01/26 17:34:25;;;;;;;17.88;8.40;;;2.90;99.90;;;;;;4957394;28;20700;-71
2022/01/26 18:05:30;;;;;;;15.13;8.60;;;2.80;99.90;;;;;;4957264;28;20026;-70
2022/01/26 18:50:34;;;;;;;16.13;7.57;;;2.90;99.90;;;;;;4958479;28;20107;-70
2022/01/26 18:52:59;;;;;;;;;;;2.90;99.90;;;;;;4962987;28;20073;-71
2022/01/26 18:55:25;;;;;;;17.80;7.35;;;2.90;99.90;;;;;;4958306;28;19914;-72
2022/01/26 18:57:51;;;;;;;17.27;7.63;;;2.80;99.90;;;;;;4960111;28;20031;-71
2022/01/26 19:00:17;;;;;;;18.40;8.50;;;2.80;99.90;;;;;;4959118;28;20015;-72
2022/01/26 19:02:43;;;;;;;20.05;9.90;;;2.80;99.90;;;;;;4962557;28;20018;-70
2022/01/26 19:05:10;;;;;;;21.47;10.17;;;2.80;99.90;;;;;;4962385;28;20077;-72
2022/01/26 19:07:36;;;;;;;16.90;8.65;;;2.80;99.90;;;;;;4959902;28;20895;-71
2022/01/26 19:10:03;;;;;;;26.13;12.13;;;2.80;99.90;;;;;;4963692;28;20010;-71
2022/01/26 19:12:32;;;;;;;20.95;9.82;;;2.80;99.90;;;;;;4960144;28;20038;-73
2022/01/26 19:15:03;;;;;;;18.05;8.65;;;2.80;99.90;;;;;;4957175;28;20026;-70
2022/01/26 19:17:42;;;;;;;21.52;10.30;;;2.80;99.90;;;;;;4964364;28;20023;-73
2022/01/26 19:20:40;;;;;;;20.65;8.65;;;2.80;99.90;;;;;;4961244;28;20073;-71
2022/01/26 19:23:28;;;;;;;17.67;8.65;;;2.80;99.90;;;;;;4964599;28;20117;-74
2022/01/26 19:26:01;;;;;;;;;;;2.80;99.90;;;;;;4960698;28;20033;-73
2022/01/26 19:28:32;;;;;;;18.52;8.10;;;2.80;99.90;;;;;;4959299;28;19986;-72